ADDS METAR Data INFO
IDs: Format: Raw Decoded Include TAF

Data at: 0850 UTC 22 Feb 2018

PAYA 220753Z AUTO 06003KT 10SM SCT100 M03/M06 A3034 RMK AO2 SLP273 T10281056 TSNO $
PAYA 220653Z AUTO 00000KT 10SM CLR M02/M05 A3034 RMK AO2 SLP275 T10171050 TSNO $
PAYA 220632Z AUTO 06003KT 10SM SCT023 M01/M05 A3034 RMK AO2 T10111050 TSNO $
PAYA 220553Z AUTO 04004KT 10SM BKN023 M02/M04 A3035 RMK AO2 SLP277 T10171039 10033 21028 51000 TSNO $
PAYA 220550Z AUTO 05003KT 10SM BKN023 M02/M04 A3035 RMK AO2 TSNO $
PAYA 220453Z AUTO 00000KT 10SM CLR M02/M03 A3035 RMK AO2 SLP278 T10171033 TSNO $
PAYA 220353Z AUTO 07003KT 10SM CLR M01/M03 A3035 RMK AO2 SLP276 T10111028 TSNO
PAYA 212353Z AUTO 07004KT 10SM CLR 03/M01 A3039 RMK AO2 SLP291 I6000 T00281011 10033 21067 58008 TSNO
PAYA 212253Z AUTO 09003KT 10SM SCT017 02/M02 A3041 RMK AO2 SLP297 T00221017 TSNO
PAYA 212153Z AUTO 03003KT 10SM OVC016 03/M02 A3042 RMK AO2 SLP301 T00281017 TSNO
PAYA 212145Z AUTO 00000KT 10SM BKN016 02/M02 A3042 RMK AO2 T00221017 TSNO
PAYA 212053Z AUTO 00000KT 10SM CLR 01/M02 A3041 RMK AO2 SLP299 I3000 T00061017 53001 TSNO
PAYA 211953Z AUTO 00000KT 10SM CLR M02/M04 A3040 RMK AO2 SLP295 T10171039 TSNO
PAYA 211853Z AUTO 00000KT 10SM CLR M03/M05 A3041 RMK AO2 SLP298 I1000 T10331050 TSNO
PAYA 211753Z AUTO 05004KT 10SM CLR M07/M08 A3041 RMK AO2 SLP298 I6000 T10671078 11056 21083 50001 TSNO
PAYA 211653Z AUTO 09003KT 10SM CLR M07/M09 A3041 RMK AO2 SLP299 T10721089 TSNO
PAYA 211553Z AUTO 00000KT 10SM CLR M07/M08 A3041 RMK AO2 SLP298 I1000 T10671078 TSNO $
PAYA 211453Z AUTO 00000KT 7SM CLR M07/M09 A3041 RMK AO2 SLP296 T10671089 58002 TSNO $
PAYA 211353Z AUTO 00000KT 10SM CLR M07/M08 A3042 RMK AO2 SLP302 T10671083 TSNO $
PAYA 211253Z AUTO 05003KT 10SM CLR M07/M09 A3043 RMK AO2 SLP303 T10671089 TSNO $
PAYA 210753Z AUTO 6SM BR CLR M04/M06 A3040 RMK AO2 SLP295 I1000 T10391056 TSNO $
PAYA 210713Z AUTO 00000KT 9SM R11/5000VP6000FT CLR M04/M06 A3039 RMK AO2 T10441056 TSNO
PAYA 210704Z AUTO 00000KT 2SM BR CLR M04/M06 A3039 RMK AO2 T10441056 TSNO
PAYA 210658Z AUTO 00000KT 1 1/4SM BR FEW002 M04/M06 A3038 RMK AO2 T10441056 TSNO
PAYA 210653Z AUTO 00000KT 3/4SM R11/P6000FT BR CLR M04/M05 A3038 RMK AO2 SLP289 I1001 T10391050 TSNO
PAYA 210648Z AUTO 00000KT 1/2SM R11/P6000FT FZFG CLR M04/M06 A3039 RMK AO2 I1001 TSNO
PAYA 210633Z AUTO 00000KT 1/2SM R11/5500VP6000FT FZFG VV002 M04/M06 A3038 RMK AO2 I1000 T10441056 TSNO
PAYA 210628Z AUTO 00000KT 1 1/4SM R11/2200VP6000FT BR CLR M04/M06 A3039 RMK AO2 I1000 T10391056 TSNO
PAYA 210553Z AUTO 00000KT 10SM CLR M02/M03 A3039 RMK AO2 SLP291 I1001 I6001 T10221033 10022 21028 53019 TSNO